Time;durP1;ratioP1;P1;durP2;ratioP2;P2;SDS_P1;SDS_P2;PMS_P1;PMS_P2;Temp;Humidity;BMP_temperature;BMP_pressure;BME280_temperature;BME280_humidity;BME280_pressure;Samples;Min_cycle;Max_cycle;Signal;HPM_P1;HPM_P2
2023/05/09 00:00:11;;;;;;;0.00;0.00;;;16.90;99.90;;;;;;5092258;28;20039;-87
2023/05/09 00:02:38;;;;;;;0.10;0.10;;;16.90;99.90;;;;;;5091968;28;20020;-88
2023/05/09 00:05:06;;;;;;;0.00;0.00;;;16.80;99.90;;;;;;5090889;28;20043;-88
2023/05/09 00:07:32;;;;;;;0.05;0.05;;;16.90;99.90;;;;;;5091453;28;20472;-88
2023/05/09 00:09:59;;;;;;;0.00;0.00;;;16.90;99.90;;;;;;5091091;28;20032;-88
2023/05/09 00:12:27;;;;;;;0.13;0.10;;;16.70;99.90;;;;;;5091935;28;20024;-88
2023/05/09 00:14:55;;;;;;;0.00;0.00;;;16.80;99.90;;;;;;5092142;28;20494;-88
2023/05/09 00:17:21;;;;;;;0.00;0.00;;;16.70;99.90;;;;;;5091068;28;20025;-88
2023/05/09 00:19:48;;;;;;;0.00;0.00;;;16.60;99.90;;;;;;5090290;28;20101;-88
2023/05/09 00:22:16;;;;;;;0.10;0.10;;;16.80;99.90;;;;;;5090186;28;20043;-87
2023/05/09 00:24:41;;;;;;;0.10;0.10;;;16.80;99.90;;;;;;5090670;28;20032;-88
2023/05/09 00:27:07;;;;;;;0.03;0.03;;;16.90;99.90;;;;;;5091859;28;20031;-88
2023/05/09 00:29:33;;;;;;;0.10;0.10;;;16.80;99.90;;;;;;5090712;28;20481;-88
2023/05/09 00:31:58;;;;;;;0.00;0.00;;;16.90;99.90;;;;;;5090457;28;20515;-88
2023/05/09 00:34:24;;;;;;;0.20;0.20;;;16.90;99.90;;;;;;5091068;28;20028;-88
2023/05/09 00:36:49;;;;;;;0.00;0.00;;;16.90;99.90;;;;;;5090209;28;20105;-88
2023/05/09 00:39:15;;;;;;;0.00;0.00;;;16.90;99.90;;;;;;5092421;28;20024;-87
2023/05/09 00:41:41;;;;;;;0.10;0.10;;;16.80;99.90;;;;;;5094809;28;20054;-87
2023/05/09 00:44:07;;;;;;;0.00;0.00;;;16.50;99.90;;;;;;5095557;28;20024;-87
2023/05/09 00:46:32;;;;;;;0.10;0.10;;;16.40;99.90;;;;;;5094231;28;20488;-88
2023/05/09 00:48:58;;;;;;;0.10;0.10;;;16.40;99.90;;;;;;5095671;28;20031;-88
2023/05/09 00:51:24;;;;;;;0.10;0.10;;;16.40;99.90;;;;;;5095487;28;20488;-87
2023/05/09 00:53:50;;;;;;;0.00;0.00;;;16.10;99.90;;;;;;5095453;28;20028;-88
2023/05/09 00:56:16;;;;;;;0.10;0.10;;;16.00;99.90;;;;;;5094128;28;20403;-88
2023/05/09 00:58:42;;;;;;;0.10;0.10;;;16.10;99.90;;;;;;5095504;28;20419;-87
2023/05/09 01:01:08;;;;;;;0.10;0.10;;;16.00;99.90;;;;;;5095288;28;20020;-88
2023/05/09 01:03:34;;;;;;;0.05;0.05;;;15.90;99.90;;;;;;5095184;28;20038;-88
2023/05/09 01:06:18;;;;;;;0.30;0.20;;;15.80;99.90;;;;;;5095218;28;20051;-88
2023/05/09 01:09:00;;;;;;;0.00;0.00;;;15.90;99.90;;;;;;5093905;28;20028;-88
2023/05/09 01:11:38;;;;;;;0.20;0.20;;;15.80;99.90;;;;;;5095579;28;20045;-88
2023/05/09 01:14:21;;;;;;;0.22;0.20;;;15.80;99.90;;;;;;5094023;28;20081;-87
2023/05/09 01:17:04;;;;;;;0.10;0.10;;;16.00;99.90;;;;;;5093740;28;20021;-88
2023/05/09 01:19:39;;;;;;;0.08;0.08;;;16.10;99.90;;;;;;5093240;28;20056;-87
2023/05/09 01:22:08;;;;;;;0.00;0.00;;;16.10;99.90;;;;;;5094888;28;20080;-88
2023/05/09 01:24:52;;;;;;;0.00;0.00;;;16.20;99.90;;;;;;5095121;28;20081;-88
2023/05/09 01:27:36;;;;;;;0.30;0.30;;;16.10;99.90;;;;;;5094795;28;20380;-87
2023/05/09 01:30:03;;;;;;;0.20;0.20;;;16.20;99.90;;;;;;5094122;28;20039;-88
2023/05/09 01:32:31;;;;;;;0.00;0.00;;;16.10;99.90;;;;;;5094812;28;20051;-88
2023/05/09 01:35:00;;;;;;;0.00;0.00;;;16.20;99.90;;;;;;5094454;28;20032;-87
2023/05/09 01:37:30;;;;;;;0.40;0.13;;;15.90;99.90;;;;;;5093394;28;20076;-87
2023/05/09 01:40:00;;;;;;;0.20;0.20;;;15.90;99.90;;;;;;5093621;28;20361;-87
2023/05/09 01:42:29;;;;;;;0.10;0.10;;;15.80;99.90;;;;;;5094302;28;20035;-88
2023/05/09 01:44:56;;;;;;;0.00;0.00;;;15.80;99.90;;;;;;5093320;28;20036;-87
2023/05/09 01:47:23;;;;;;;0.10;0.10;;;15.90;99.90;;;;;;5094248;28;20031;-87
2023/05/09 01:49:49;;;;;;;0.00;0.00;;;16.00;99.90;;;;;;5094020;28;20482;-87
2023/05/09 01:52:17;;;;;;;0.00;0.00;;;15.90;99.90;;;;;;5094420;28;20499;-87
2023/05/09 01:54:44;;;;;;;0.00;0.00;;;15.90;99.90;;;;;;5094665;28;20028;-88
2023/05/09 01:57:10;;;;;;;0.10;0.10;;;16.10;99.90;;;;;;5094424;28;20077;-90
2023/05/09 01:59:40;;;;;;;0.00;0.00;;;15.90;99.90;;;;;;5094644;28;20028;-90
2023/05/09 02:02:06;;;;;;;0.10;0.10;;;15.80;99.90;;;;;;5094272;28;20028;-90
2023/05/09 02:04:33;;;;;;;0.00;0.00;;;15.80;99.90;;;;;;5094073;28;20045;-90
2023/05/09 02:07:00;;;;;;;0.00;0.00;;;15.80;99.90;;;;;;5094259;28;20024;-90
2023/05/09 02:09:26;;;;;;;0.10;0.10;;;15.90;99.90;;;;;;5094356;28;20032;-90
2023/05/09 02:11:52;;;;;;;0.00;0.00;;;15.90;99.90;;;;;;5093131;28;20032;-90
2023/05/09 02:14:18;;;;;;;0.00;0.00;;;16.00;99.90;;;;;;5094293;28;20020;-90
2023/05/09 02:16:44;;;;;;;0.20;0.20;;;16.00;99.90;;;;;;5093941;28;20042;-90
2023/05/09 02:19:09;;;;;;;0.05;0.05;;;15.90;99.90;;;;;;5093051;28;20416;-91
2023/05/09 02:21:35;;;;;;;0.00;0.00;;;15.90;99.90;;;;;;5093017;28;20051;-90
2023/05/09 02:24:01;;;;;;;0.10;0.10;;;15.80;99.90;;;;;;5093969;28;20040;-90
2023/05/09 02:26:28;;;;;;;0.00;0.00;;;15.80;99.90;;;;;;5094239;28;20024;-90
2023/05/09 02:28:54;;;;;;;0.00;0.00;;;15.90;99.90;;;;;;5094465;28;20503;-90
2023/05/09 02:31:22;;;;;;;0.00;0.00;;;15.80;99.90;;;;;;5093562;28;20031;-90
2023/05/09 02:33:51;;;;;;;0.10;0.10;;;15.80;99.90;;;;;;5093969;28;20036;-91
2023/05/09 02:36:18;;;;;;;0.00;0.00;;;15.80;99.90;;;;;;5093896;28;20164;-90
2023/05/09 02:38:44;;;;;;;0.10;0.10;;;15.90;99.90;;;;;;5094127;28;20100;-90
2023/05/09 02:41:16;;;;;;;2.47;0.20;;;15.80;99.90;;;;;;5093615;28;20106;-90
2023/05/09 02:43:42;;;;;;;0.00;0.00;;;15.70;99.90;;;;;;5093720;28;20036;-90
2023/05/09 02:46:08;;;;;;;0.00;0.00;;;15.60;99.90;;;;;;5093493;28;20502;-90
2023/05/09 02:48:35;;;;;;;0.10;0.10;;;15.60;99.90;;;;;;5093618;28;20020;-90
2023/05/09 02:51:01;;;;;;;0.00;0.00;;;15.60;99.90;;;;;;5126334;27;20101;-90
2023/05/09 02:53:26;;;;;;;0.10;0.10;;;15.60;99.90;;;;;;5092257;28;20078;-90
2023/05/09 02:55:52;;;;;;;0.10;0.10;;;15.60;99.90;;;;;;5093643;28;20016;-90
2023/05/09 02:58:19;;;;;;;0.00;0.00;;;15.50;99.90;;;;;;5093518;28;20042;-90
2023/05/09 03:00:44;;;;;;;0.03;0.03;;;15.60;99.90;;;;;;5091748;28;20024;-90
2023/05/09 03:03:10;;;;;;;0.00;0.00;;;15.70;99.90;;;;;;5093072;28;20036;-90
2023/05/09 03:05:36;;;;;;;0.00;0.00;;;15.70;99.90;;;;;;5093169;28;20020;-90
2023/05/09 03:08:01;;;;;;;0.38;0.20;;;15.60;99.90;;;;;;5092989;28;20561;-87
2023/05/09 03:10:27;;;;;;;0.00;0.00;;;15.60;99.90;;;;;;5092860;28;20025;-87
2023/05/09 03:12:53;;;;;;;0.10;0.10;;;15.60;99.90;;;;;;5093180;28;20028;-87
2023/05/09 03:15:19;;;;;;;0.00;0.00;;;15.70;99.90;;;;;;5092383;28;20547;-87
2023/05/09 03:17:45;;;;;;;0.00;0.00;;;15.70;99.90;;;;;;5092836;28;20028;-87
2023/05/09 03:20:11;;;;;;;0.10;0.10;;;15.80;99.90;;;;;;5091085;28;20522;-87
2023/05/09 03:22:37;;;;;;;0.10;0.10;;;15.80;99.90;;;;;;5091338;28;20027;-88
2023/05/09 03:25:03;;;;;;;0.20;0.20;;;15.70;99.90;;;;;;5092777;28;20040;-88
2023/05/09 03:27:28;;;;;;;1.52;0.30;;;15.80;99.90;;;;;;5092641;28;20031;-88
2023/05/09 03:29:54;;;;;;;0.00;0.00;;;15.70;99.90;;;;;;5092388;28;20032;-87
2023/05/09 03:32:19;;;;;;;0.00;0.00;;;15.80;99.90;;;;;;5092507;28;20016;-87
2023/05/09 03:34:45;;;;;;;0.10;0.10;;;15.80;99.90;;;;;;5092433;28;20029;-87
2023/05/09 03:37:11;;;;;;;0.10;0.10;;;15.90;99.90;;;;;;5091149;28;20024;-88
2023/05/09 03:39:36;;;;;;;0.00;0.00;;;15.80;99.90;;;;;;5092394;28;20024;-88
2023/05/09 03:42:02;;;;;;;0.08;0.08;;;15.80;99.90;;;;;;5092598;28;20024;-87
2023/05/09 03:44:28;;;;;;;0.00;0.00;;;15.80;99.90;;;;;;5091584;28;20036;-88
2023/05/09 03:46:53;;;;;;;0.10;0.10;;;15.80;99.90;;;;;;5092254;28;20050;-88
2023/05/09 03:49:19;;;;;;;0.03;0.03;;;15.80;99.90;;;;;;5092292;28;20399;-88
2023/05/09 03:51:45;;;;;;;0.43;0.43;;;15.70;99.90;;;;;;5092299;28;20036;-88
2023/05/09 03:54:11;;;;;;;0.10;0.10;;;15.70;99.90;;;;;;5092482;28;20024;-87
2023/05/09 03:56:36;;;;;;;0.17;0.17;;;15.60;99.90;;;;;;5091987;28;20025;-87
2023/05/09 03:59:02;;;;;;;0.05;0.05;;;15.70;99.90;;;;;;5090296;28;20027;-87
2023/05/09 04:01:28;;;;;;;0.03;0.03;;;15.70;99.90;;;;;;5092102;28;20062;-88
2023/05/09 04:03:53;;;;;;;0.10;0.10;;;15.50;99.90;;;;;;5092092;28;20036;-87
2023/05/09 04:06:19;;;;;;;0.10;0.10;;;15.50;99.90;;;;;;5092565;28;20050;-87
2023/05/09 04:08:45;;;;;;;0.00;0.00;;;15.40;99.90;;;;;;5091824;28;20057;-88
2023/05/09 04:11:10;;;;;;;0.10;0.10;;;15.40;99.90;;;;;;5091887;28;20021;-87
2023/05/09 04:13:36;;;;;;;0.00;0.00;;;15.30;99.90;;;;;;5091594;28;20032;-88
2023/05/09 04:16:01;;;;;;;0.10;0.10;;;15.50;99.90;;;;;;5095771;28;20028;-88
2023/05/09 04:18:27;;;;;;;0.10;0.10;;;15.60;99.90;;;;;;5096316;28;20095;-85
2023/05/09 04:20:53;;;;;;;0.08;0.08;;;15.70;99.90;;;;;;5094855;28;20117;-88
2023/05/09 04:23:18;;;;;;;0.10;0.10;;;15.70;99.90;;;;;;5096000;28;20035;-88
2023/05/09 04:25:44;;;;;;;0.00;0.00;;;15.80;99.90;;;;;;5096043;28;20074;-88
2023/05/09 04:28:10;;;;;;;0.10;0.10;;;15.70;99.90;;;;;;5095914;28;20103;-88
2023/05/09 04:30:36;;;;;;;0.00;0.00;;;15.70;99.90;;;;;;5096271;28;20032;-87
2023/05/09 04:33:02;;;;;;;0.08;0.08;;;15.70;99.90;;;;;;5095716;28;20522;-88
2023/05/09 04:35:27;;;;;;;0.00;0.00;;;15.70;99.90;;;;;;5095879;28;20024;-88
2023/05/09 04:37:53;;;;;;;0.13;0.13;;;15.70;99.90;;;;;;5094822;28;20035;-87
2023/05/09 04:40:19;;;;;;;0.08;0.08;;;15.70;99.90;;;;;;5095821;28;20027;-87
2023/05/09 04:42:44;;;;;;;0.00;0.00;;;15.80;99.90;;;;;;5095459;28;20028;-88
2023/05/09 04:45:10;;;;;;;0.20;0.20;;;15.70;99.90;;;;;;5095495;28;20036;-87
2023/05/09 04:47:37;;;;;;;0.10;0.10;;;15.70;99.90;;;;;;5095914;28;20049;-87
2023/05/09 04:50:02;;;;;;;0.22;0.22;;;15.80;99.90;;;;;;5095578;28;20396;-88
2023/05/09 04:52:28;;;;;;;0.10;0.10;;;15.80;99.90;;;;;;5095438;28;20028;-87
2023/05/09 04:54:54;;;;;;;0.75;0.75;;;15.70;99.90;;;;;;5094819;28;20044;-90
2023/05/09 04:57:20;;;;;;;1.80;0.88;;;15.60;99.90;;;;;;5095256;28;20024;-90
2023/05/09 04:59:46;;;;;;;0.00;0.00;;;15.70;99.90;;;;;;5095636;28;20524;-90
2023/05/09 05:02:12;;;;;;;0.00;0.00;;;15.80;99.90;;;;;;5096004;28;20108;-90
2023/05/09 05:04:37;;;;;;;0.10;0.10;;;15.80;99.90;;;;;;5095502;28;20043;-90
2023/05/09 05:07:04;;;;;;;0.20;0.20;;;15.80;99.90;;;;;;5094047;28;20021;-90
2023/05/09 05:09:29;;;;;;;0.05;0.05;;;15.80;99.90;;;;;;5095544;28;20547;-90
2023/05/09 05:11:55;;;;;;;0.00;0.00;;;15.80;99.90;;;;;;5095488;28;20077;-90
2023/05/09 05:14:21;;;;;;;0.00;0.00;;;15.90;99.90;;;;;;5095288;28;20391;-90
2023/05/09 05:16:47;;;;;;;0.10;0.10;;;16.00;99.90;;;;;;5093667;28;20024;-90
2023/05/09 05:19:13;;;;;;;0.70;0.20;;;16.10;99.90;;;;;;5095000;28;20056;-89
2023/05/09 05:21:38;;;;;;;0.10;0.10;;;16.20;99.90;;;;;;5095132;28;20415;-90
2023/05/09 05:24:04;;;;;;;1.27;0.32;;;16.20;99.90;;;;;;5093897;28;20033;-90
2023/05/09 05:26:29;;;;;;;0.05;0.05;;;16.20;99.90;;;;;;5094353;28;20032;-89
2023/05/09 05:28:56;;;;;;;0.22;0.22;;;16.20;99.90;;;;;;5095455;28;20082;-90
2023/05/09 05:31:22;;;;;;;0.20;0.20;;;16.20;99.90;;;;;;5095060;28;20447;-90
2023/05/09 05:33:47;;;;;;;0.10;0.10;;;16.30;99.90;;;;;;5095067;28;20043;-90
2023/05/09 05:36:13;;;;;;;0.30;0.30;;;16.40;99.90;;;;;;5094181;28;20059;-90
2023/05/09 05:38:39;;;;;;;0.00;0.00;;;16.50;99.90;;;;;;5093854;28;20028;-90
2023/05/09 05:41:04;;;;;;;0.50;0.50;;;16.50;99.90;;;;;;5094232;28;20028;-90
2023/05/09 05:43:30;;;;;;;0.40;0.40;;;16.30;99.90;;;;;;5093175;28;20036;-90
2023/05/09 05:45:56;;;;;;;0.20;0.20;;;16.30;99.90;;;;;;5095180;28;20020;-90
2023/05/09 05:48:21;;;;;;;0.43;0.43;;;16.20;99.90;;;;;;5092948;28;20035;-90
2023/05/09 05:50:47;;;;;;;0.57;0.30;;;16.20;99.90;;;;;;5088147;28;20075;-89
2023/05/09 05:53:13;;;;;;;0.38;0.30;;;16.40;99.90;;;;;;5075707;28;20381;-90
2023/05/09 05:55:38;;;;;;;0.17;0.17;;;16.60;99.90;;;;;;5093689;28;20136;-90
2023/05/09 05:58:45;;;;;;;0.10;0.10;;;16.80;99.90;;;;;;5104406;28;20024;-96
2023/05/09 06:01:12;;;;;;;0.55;0.55;;;16.80;99.90;;;;;;5041079;28;20522;-95
2023/05/09 06:03:38;;;;;;;1.35;0.40;;;16.80;99.90;;;;;;5034036;28;20050;-94
2023/05/09 06:06:04;;;;;;;0.40;0.40;;;16.80;99.90;;;;;;5047875;28;20482;-85
2023/05/09 06:08:30;;;;;;;0.20;0.20;;;16.70;99.90;;;;;;5053892;28;20532;-96
2023/05/09 06:10:56;;;;;;;0.22;0.22;;;16.70;99.90;;;;;;5036692;28;20486;-94
2023/05/09 06:13:21;;;;;;;0.10;0.10;;;16.80;99.90;;;;;;5040241;28;20028;-96
2023/05/09 06:15:47;;;;;;;0.20;0.20;;;16.90;99.90;;;;;;5058794;28;20029;-96
2023/05/09 06:18:12;;;;;;;0.20;0.20;;;17.00;99.90;;;;;;5040302;28;20121;-96
2023/05/09 06:20:38;;;;;;;0.10;0.10;;;17.00;99.90;;;;;;5037394;28;20133;-92
2023/05/09 06:23:04;;;;;;;0.25;0.25;;;17.10;99.90;;;;;;5051618;28;20365;-92
2023/05/09 06:25:29;;;;;;;0.20;0.20;;;17.10;99.90;;;;;;5052754;28;20033;-91
2023/05/09 06:27:55;;;;;;;0.20;0.20;;;17.20;99.90;;;;;;5052224;28;20032;-91
2023/05/09 06:30:21;;;;;;;0.55;0.32;;;17.30;99.90;;;;;;5052943;28;20108;-92
2023/05/09 06:32:46;;;;;;;0.10;0.10;;;17.30;99.90;;;;;;5094053;28;20028;-91
2023/05/09 06:35:12;;;;;;;0.00;0.00;;;17.20;99.90;;;;;;5092963;28;20031;-91
2023/05/09 06:37:38;;;;;;;0.10;0.10;;;17.10;99.90;;;;;;5091027;28;20423;-90
2023/05/09 06:40:04;;;;;;;0.03;0.03;;;17.20;99.90;;;;;;5090935;28;20032;-89
2023/05/09 06:42:31;;;;;;;0.10;0.10;;;17.50;99.90;;;;;;5089385;28;20021;-89
2023/05/09 06:44:57;;;;;;;0.10;0.10;;;17.50;99.90;;;;;;5087288;28;20053;-89
2023/05/09 06:47:22;;;;;;;0.10;0.10;;;17.50;99.90;;;;;;5092440;28;20148;-89
2023/05/09 06:49:48;;;;;;;0.43;0.30;;;17.60;99.90;;;;;;5093891;28;20024;-89
2023/05/09 06:52:14;;;;;;;0.20;0.20;;;17.60;99.90;;;;;;5092255;28;20074;-88
2023/05/09 06:54:40;;;;;;;0.10;0.10;;;17.70;99.90;;;;;;5092559;28;20454;-89
2023/05/09 06:57:06;;;;;;;0.10;0.10;;;17.90;99.90;;;;;;5092413;28;20043;-89
2023/05/09 06:59:32;;;;;;;0.10;0.10;;;17.90;99.90;;;;;;5093807;28;20032;-89
2023/05/09 07:01:58;;;;;;;0.25;0.25;;;17.90;99.90;;;;;;5092710;28;20024;-89
2023/05/09 07:04:23;;;;;;;0.13;0.13;;;18.10;99.90;;;;;;5093372;28;20521;-89
2023/05/09 07:06:49;;;;;;;2.08;0.25;;;18.00;99.90;;;;;;5093348;28;20099;-89
2023/05/09 07:09:17;;;;;;;0.50;0.50;;;18.00;99.90;;;;;;5093555;28;20056;-89
2023/05/09 07:11:44;;;;;;;0.13;0.13;;;18.00;99.90;;;;;;5093344;28;20024;-89
2023/05/09 07:14:10;;;;;;;0.65;0.20;;;18.10;99.90;;;;;;5093058;28;20358;-89
2023/05/09 07:16:35;;;;;;;0.45;0.40;;;18.30;99.90;;;;;;5092733;28;20035;-89
2023/05/09 07:19:01;;;;;;;0.25;0.25;;;18.30;99.90;;;;;;5091450;28;20044;-88
2023/05/09 07:21:27;;;;;;;0.90;0.55;;;18.20;99.90;;;;;;5092802;28;20028;-89
2023/05/09 07:23:53;;;;;;;0.10;0.10;;;18.30;99.90;;;;;;5093330;28;20105;-89
2023/05/09 07:26:20;;;;;;;0.10;0.10;;;18.40;99.90;;;;;;5091947;28;20016;-89
2023/05/09 07:28:45;;;;;;;0.13;0.13;;;18.40;99.90;;;;;;5092480;28;20046;-89
2023/05/09 07:31:11;;;;;;;0.10;0.10;;;18.40;99.90;;;;;;5092985;28;20020;-89
2023/05/09 07:33:36;;;;;;;0.10;0.10;;;18.60;99.90;;;;;;5092952;28;20024;-89
2023/05/09 07:36:02;;;;;;;0.03;0.03;;;18.90;99.90;;;;;;5092819;28;20024;-89
2023/05/09 07:38:28;;;;;;;0.20;0.20;;;19.00;99.90;;;;;;5091654;28;20215;-88
2023/05/09 07:40:53;;;;;;;0.30;0.30;;;19.20;99.90;;;;;;5092695;28;20024;-89
2023/05/09 07:43:19;;;;;;;0.10;0.10;;;19.20;99.90;;;;;;5093550;28;20036;-88
2023/05/09 07:45:45;;;;;;;0.20;0.10;;;19.30;99.90;;;;;;5092064;28;20032;-89
2023/05/09 07:48:11;;;;;;;0.30;0.20;;;19.30;99.90;;;;;;5092153;28;20028;-89
2023/05/09 07:50:37;;;;;;;0.10;0.10;;;19.40;99.90;;;;;;5092187;28;20380;-89
2023/05/09 07:53:03;;;;;;;0.03;0.03;;;19.40;99.90;;;;;;5092983;28;20032;-89
2023/05/09 07:55:28;;;;;;;0.25;0.25;;;19.50;99.90;;;;;;5092684;28;20090;-89
2023/05/09 07:57:54;;;;;;;0.00;0.00;;;19.20;99.90;;;;;;5092702;28;20046;-89
2023/05/09 08:00:22;;;;;;;0.30;0.10;;;19.30;99.90;;;;;;5089575;28;20073;-88
2023/05/09 08:02:51;;;;;;;0.00;0.00;;;19.40;99.90;;;;;;5072559;28;20108;-88
2023/05/09 08:05:17;;;;;;;0.28;0.20;;;19.40;99.90;;;;;;5071286;28;20017;-89
2023/05/09 08:07:43;;;;;;;0.10;0.10;;;19.60;99.90;;;;;;5072447;28;20028;-88
2023/05/09 08:10:09;;;;;;;0.00;0.00;;;19.60;99.90;;;;;;5078599;28;20026;-88
2023/05/09 08:12:34;;;;;;;0.10;0.10;;;19.40;99.90;;;;;;5091498;28;20035;-89
2023/05/09 08:15:00;;;;;;;0.20;0.10;;;19.60;99.90;;;;;;5091357;28;20043;-89
2023/05/09 08:17:26;;;;;;;0.13;0.13;;;19.70;99.90;;;;;;5091613;28;20029;-89
2023/05/09 08:19:51;;;;;;;0.10;0.10;;;19.70;99.90;;;;;;5090497;28;20550;-88
2023/05/09 08:22:18;;;;;;;0.30;0.20;;;19.70;99.90;;;;;;5092801;28;20043;-89
2023/05/09 08:24:45;;;;;;;0.00;0.00;;;19.80;99.90;;;;;;5092550;28;20044;-89
2023/05/09 08:27:14;;;;;;;0.13;0.10;;;19.90;99.90;;;;;;5092915;28;20028;-88
2023/05/09 08:29:40;;;;;;;0.10;0.10;;;19.90;99.90;;;;;;5092307;28;20020;-89
2023/05/09 08:32:06;;;;;;;0.15;0.15;;;19.80;99.90;;;;;;5091156;28;20039;-89
2023/05/09 08:34:33;;;;;;;0.20;0.15;;;20.00;99.90;;;;;;5092236;28;20036;-89
2023/05/09 08:37:00;;;;;;;0.17;0.15;;;20.30;99.90;;;;;;5092177;28;20105;-89
2023/05/09 08:39:25;;;;;;;0.20;0.20;;;20.30;99.90;;;;;;5092050;28;20035;-88
2023/05/09 08:41:55;;;;;;;0.10;0.10;;;20.30;99.90;;;;;;5092017;28;20024;-88
2023/05/09 08:44:22;;;;;;;0.00;0.00;;;20.50;99.90;;;;;;5090889;28;20039;-89
2023/05/09 08:46:50;;;;;;;0.20;0.10;;;20.80;99.90;;;;;;5092801;28;20376;-89
2023/05/09 08:49:17;;;;;;;0.20;0.20;;;20.80;99.90;;;;;;5090320;28;20020;-89
2023/05/09 08:51:44;;;;;;;0.00;0.00;;;20.90;99.90;;;;;;5092592;28;20035;-89
2023/05/09 08:54:10;;;;;;;0.10;0.10;;;20.80;99.90;;;;;;5090547;28;20042;-88
2023/05/09 08:56:36;;;;;;;0.47;0.40;;;20.90;99.90;;;;;;5090206;28;20028;-88
2023/05/09 08:59:04;;;;;;;0.20;0.20;;;21.10;99.90;;;;;;5090670;28;20480;-90
2023/05/09 09:01:32;;;;;;;0.10;0.10;;;20.90;99.90;;;;;;5093667;28;20488;-89
2023/05/09 09:03:58;;;;;;;0.15;0.15;;;21.00;99.90;;;;;;5094539;28;20479;-88
2023/05/09 09:06:24;;;;;;;0.20;0.20;;;21.10;99.90;;;;;;5095652;28;20028;-87
2023/05/09 09:08:53;;;;;;;0.10;0.10;;;21.20;99.90;;;;;;5094838;28;20031;-88
2023/05/09 09:11:21;;;;;;;0.28;0.15;;;21.40;99.90;;;;;;5095306;28;20032;-88
2023/05/09 09:13:48;;;;;;;0.28;0.28;;;21.60;99.90;;;;;;5095360;28;20040;-88
2023/05/09 09:16:21;;;;;;;0.15;0.15;;;21.80;99.90;;;;;;5096276;28;20085;-90
2023/05/09 09:18:50;;;;;;;0.20;0.20;;;21.90;99.90;;;;;;5095392;28;20052;-88
2023/05/09 09:21:18;;;;;;;0.22;0.10;;;22.10;99.90;;;;;;5095538;28;20032;-90
2023/05/09 09:23:48;;;;;;;0.20;0.20;;;22.20;99.90;;;;;;5095708;28;20032;-90
2023/05/09 09:26:15;;;;;;;0.10;0.10;;;22.10;99.90;;;;;;5095278;28;20177;-91
2023/05/09 09:28:41;;;;;;;0.52;0.20;;;22.00;99.90;;;;;;5098138;28;20169;-94
2023/05/09 09:31:24;;;;;;;0.17;0.17;;;22.10;99.90;;;;;;5097371;28;20065;-88
2023/05/09 09:33:50;;;;;;;0.17;0.17;;;22.20;99.90;;;;;;5095789;28;20031;-92
2023/05/09 09:36:25;;;;;;;0.28;0.20;;;22.40;99.90;;;;;;5095910;28;20039;-88
2023/05/09 09:38:57;;;;;;;0.10;0.10;;;22.50;99.90;;;;;;5095534;28;20499;-91
2023/05/09 09:41:33;;;;;;;0.08;0.08;;;22.70;99.90;;;;;;5095662;28;20026;-90
2023/05/09 09:44:04;;;;;;;0.00;0.00;;;23.10;99.90;;;;;;5087283;28;20036;-90
2023/05/09 09:46:40;;;;;;;0.10;0.10;;;23.10;99.90;;;;;;5094289;28;20480;-90
2023/05/09 09:49:14;;;;;;;0.00;0.00;;;23.10;99.90;;;;;;5094010;28;20024;-90
2023/05/09 09:51:40;;;;;;;0.20;0.20;;;23.20;99.90;;;;;;5094570;28;20027;-92
2023/05/09 09:54:08;;;;;;;0.47;0.10;;;23.10;99.90;;;;;;5093987;28;20036;-93
2023/05/09 09:56:42;;;;;;;0.00;0.00;;;23.30;99.90;;;;;;5096136;28;20021;-92
2023/05/09 09:59:16;;;;;;;0.00;0.00;;;23.30;99.90;;;;;;5095079;28;20069;-91
2023/05/09 10:02:05;;;;;;;0.30;0.20;;;23.10;99.90;;;;;;5094736;28;20050;-91
2023/05/09 10:04:37;;;;;;;0.20;0.15;;;23.20;99.90;;;;;;5097631;28;20044;-94
2023/05/09 10:07:05;;;;;;;1.35;0.35;;;23.10;99.90;;;;;;5096350;28;20016;-93
2023/05/09 10:09:32;;;;;;;0.40;0.10;;;23.20;99.90;;;;;;5096128;28;20119;-95
2023/05/09 10:12:03;;;;;;;0.10;0.10;;;23.40;99.90;;;;;;5096627;28;20463;-94
2023/05/09 10:14:30;;;;;;;0.00;0.00;;;23.60;99.90;;;;;;5096215;28;20103;-94
2023/05/09 10:16:57;;;;;;;0.28;0.28;;;23.60;99.90;;;;;;5093935;28;20110;-92
2023/05/09 10:19:26;;;;;;;0.10;0.10;;;23.50;99.90;;;;;;5095500;28;20540;-94
2023/05/09 10:21:52;;;;;;;0.70;0.30;;;23.40;99.90;;;;;;5094755;28;20106;-91
2023/05/09 10:24:33;;;;;;;0.10;0.10;;;23.50;99.90;;;;;;5096230;28;20466;-94
2023/05/09 10:27:05;;;;;;;0.10;0.10;;;23.40;99.90;;;;;;5096298;28;20020;-91
2023/05/09 10:29:40;;;;;;;0.10;0.03;;;23.10;99.90;;;;;;5095360;28;20028;-90
2023/05/09 10:32:22;;;;;;;0.00;0.00;;;23.30;99.90;;;;;;5095368;28;20088;-93
2023/05/09 10:34:51;;;;;;;0.00;0.00;;;23.40;99.90;;;;;;5111877;27;20020;-92
2023/05/09 10:37:19;;;;;;;0.00;0.00;;;23.10;99.90;;;;;;5094966;28;20028;-90
2023/05/09 10:39:45;;;;;;;0.10;0.10;;;23.00;99.90;;;;;;5093390;28;20491;-88
2023/05/09 10:42:13;;;;;;;0.15;0.15;;;23.00;99.90;;;;;;5093699;28;20016;-88
2023/05/09 10:44:40;;;;;;;0.17;0.17;;;23.10;99.90;;;;;;5091942;28;20123;-90
2023/05/09 10:47:06;;;;;;;0.17;0.17;;;23.20;99.90;;;;;;5093324;28;20031;-91
2023/05/09 10:49:32;;;;;;;0.10;0.10;;;23.20;99.90;;;;;;5093181;28;20035;-89
2023/05/09 10:51:58;;;;;;;0.00;0.00;;;23.20;99.90;;;;;;5093708;28;20028;-89
2023/05/09 10:54:28;;;;;;;0.10;0.10;;;23.10;99.90;;;;;;5094196;28;20567;-94
2023/05/09 10:56:55;;;;;;;0.28;0.28;;;23.10;99.90;;;;;;5093385;28;20039;-88
2023/05/09 10:59:41;;;;;;;0.20;0.20;;;22.90;99.90;;;;;;5092817;28;20020;-88
2023/05/09 11:02:17;;;;;;;0.30;0.10;;;23.10;99.90;;;;;;5093068;28;20044;-89
2023/05/09 11:04:44;;;;;;;0.00;0.00;;;23.00;99.90;;;;;;5089694;28;20040;-89
2023/05/09 11:07:28;;;;;;;0.08;0.08;;;22.70;99.90;;;;;;5093032;28;20031;-89
2023/05/09 11:10:13;;;;;;;0.00;0.00;;;22.70;99.90;;;;;;5086969;28;20295;-89
2023/05/09 11:12:56;;;;;;;0.10;0.10;;;22.40;99.90;;;;;;5092120;28;20383;-89
2023/05/09 11:15:22;;;;;;;0.05;0.05;;;22.50;99.90;;;;;;5093177;28;20031;-89
2023/05/09 11:18:08;;;;;;;0.45;0.15;;;22.60;99.90;;;;;;5092069;28;20025;-90
2023/05/09 11:20:35;;;;;;;0.00;0.00;;;22.70;99.90;;;;;;5093458;28;20044;-89
2023/05/09 11:23:03;;;;;;;0.00;0.00;;;22.60;99.90;;;;;;5092625;28;20361;-89
2023/05/09 11:25:29;;;;;;;0.05;0.03;;;22.50;99.90;;;;;;5093780;28;20062;-89
2023/05/09 11:28:00;;;;;;;0.00;0.00;;;22.50;99.90;;;;;;5092721;28;20056;-89
2023/05/09 11:30:38;;;;;;;0.17;0.17;;;22.60;99.90;;;;;;5093406;28;20472;-89
2023/05/09 11:33:05;;;;;;;0.20;0.20;;;22.40;99.90;;;;;;5093194;28;20028;-90
2023/05/09 11:35:32;;;;;;;0.20;0.20;;;22.40;99.90;;;;;;5091740;28;20023;-89
2023/05/09 11:37:59;;;;;;;0.00;0.00;;;22.40;99.90;;;;;;5093508;28;20036;-89
2023/05/09 11:40:26;;;;;;;0.00;0.00;;;22.40;99.90;;;;;;5091176;28;20119;-90
2023/05/09 11:42:54;;;;;;;0.03;0.03;;;22.40;99.90;;;;;;5092584;28;20472;-90
2023/05/09 11:45:22;;;;;;;0.10;0.10;;;22.40;99.90;;;;;;5091533;28;20030;-90
2023/05/09 11:47:48;;;;;;;0.20;0.20;;;22.30;99.90;;;;;;5091325;28;20106;-89
2023/05/09 11:50:16;;;;;;;0.10;0.10;;;22.30;99.90;;;;;;5091911;28;20024;-90
2023/05/09 11:52:42;;;;;;;0.20;0.20;;;22.30;99.90;;;;;;5092577;28;20031;-89
2023/05/09 11:55:12;;;;;;;0.32;0.20;;;22.20;99.90;;;;;;5093594;28;20031;-90
2023/05/09 11:57:40;;;;;;;0.00;0.00;;;22.30;99.90;;;;;;5092459;28;20039;-89
2023/05/09 12:00:08;;;;;;;0.30;0.10;;;22.30;99.90;;;;;;5091628;28;20020;-89
2023/05/09 12:02:35;;;;;;;0.17;0.17;;;22.10;99.90;;;;;;5093944;28;20032;-90
2023/05/09 12:05:12;;;;;;;0.52;0.25;;;22.00;99.90;;;;;;5092413;28;20058;-89
2023/05/09 12:07:38;;;;;;;0.22;0.22;;;21.90;99.90;;;;;;5092606;28;20024;-89
2023/05/09 12:10:08;;;;;;;0.00;0.00;;;21.80;99.90;;;;;;5092040;28;20036;-89
2023/05/09 12:12:55;;;;;;;0.10;0.10;;;21.80;99.90;;;;;;5071453;28;20504;-89
2023/05/09 12:15:21;;;;;;;0.00;0.00;;;21.80;99.90;;;;;;5074416;28;20202;-89
2023/05/09 12:18:01;;;;;;;0.00;0.00;;;21.80;99.90;;;;;;5092039;28;20068;-89
2023/05/09 12:20:27;;;;;;;0.00;0.00;;;21.90;99.90;;;;;;5092869;28;20048;-90
2023/05/09 12:22:53;;;;;;;0.10;0.10;;;21.90;99.90;;;;;;5091187;28;20028;-89
2023/05/09 12:25:19;;;;;;;0.00;0.00;;;21.90;99.90;;;;;;5092414;28;20376;-90
2023/05/09 12:27:44;;;;;;;0.10;0.03;;;21.80;99.90;;;;;;5091884;28;20102;-89
2023/05/09 12:30:12;;;;;;;0.00;0.00;;;21.70;99.90;;;;;;5092631;28;20024;-89
2023/05/09 12:32:39;;;;;;;0.00;0.00;;;21.60;99.90;;;;;;5092244;28;20388;-90
2023/05/09 12:35:09;;;;;;;0.00;0.00;;;21.70;99.90;;;;;;5092566;28;20028;-89
2023/05/09 12:37:35;;;;;;;0.00;0.00;;;21.60;99.90;;;;;;5096597;28;20438;-89
2023/05/09 12:40:05;;;;;;;0.00;0.00;;;21.30;99.90;;;;;;5095237;28;20035;-89
2023/05/09 12:42:31;;;;;;;0.10;0.10;;;21.30;99.90;;;;;;5095830;28;20035;-89
2023/05/09 12:44:57;;;;;;;0.00;0.00;;;21.20;99.90;;;;;;5095374;28;20051;-90
2023/05/09 12:47:29;;;;;;;0.22;0.20;;;21.00;99.90;;;;;;5095925;28;20028;-89
2023/05/09 12:50:03;;;;;;;0.00;0.00;;;20.90;99.90;;;;;;5094893;28;20024;-89